ENMS/MJF METAR and TAF weather

Enter ICAO airport designator
Station Type Date Time Source
ENMS METAR 2019/08/24 09:50 UTC NOAA

ENMS 240950Z VRB02KT 9999 FEW025 BKN050 15/10 Q1023 RMK WIND 412FT VRB02KT


Station Type Date Time Source
ENMS Decoded METAR 2019/08/24 09:50 UTC NOAA

Station name not available
Aug 24, 2019 - 05:50 AM EDT / 2019.08.24 0950 UTC
Wind: Variable at 2 MPH (2 KT):0
Visibility: greater than 7 mile(s):0
Sky conditions: mostly cloudy
Temperature: 59 F (15 C)
Dew Point: 50 F (10 C)
Relative Humidity: 72%
Pressure (altimeter): 30.21 in. Hg (1023 hPa)
ob: ENMS 240950Z VRB02KT 9999 FEW025 BKN050 15/10 Q1023 RMK WIND 412FT VRB02KT
cycle: 10

Station Type Date Time Source
ENMS TAF UTC NOAA

Error!

Example: see airport list